Peterborough, United Kingdom
Current Conditions -  °F | °C
As of 7:50 AM on Saturday 20 Dec 2014 (Local Time) from EGXT Reporting Station
Scattered Clouds Scattered Clouds  
Wind Chill: 37°   Ceiling: Unl
Heat Index: 45°   Visibility: 6mi
Dew Point: 37°   Wind: 17mph
Humidity: 76%   Direction: 260°W
Pressure: 30.12"   Gusts: NA
Location:  52.57°N, 0.24°W
Report Text: EGXT 200750Z AUTO 26015KT 9999 SCT032/// SCT046/// 07/03 Q1020
Loading
Personal Weather Stations






























Interactive Weather Map New forecast layout! Learn more

10-Day Weather Forecast

Advertisements
Track Severe Weather on mobile